首页
METAR-TAF:

METAR-TAF

机场 :

Felker Army Airfield

Fort Eustis, 弗吉尼亚州, 美国

纬度: 37-08N, 经度: 076-37W, 海拔: 4米

当前天气观测

该预报发布于21分钟前的17:56 UTC
风速8节,风向北转东北
温度 2°C
湿度 69%
气压 1018 hPa
能見度: 16.1公里
天空无云

METAR: KFAF 101756Z AUTO 03008KT 10SM CLR 02/M03 A3006 RMK AO2 SLPNO 60000 T00201035 10025 20014 58006 $

时间: 13:17 (18:17 UTC)

预报

该预报发布于7小时和17分钟前的11:00 UTC
预报有效从10日的 11点(UTC)到 11日的 17点(UTC)
风速11节,风向,有时为17节阵风
能見度: 8000
散云层高于3000英尺
多云层高于5000英尺
小雨
成为
从 10日的 13点(UTC)到 10日的 14点(UTC)
风速10节,风向北转东北,有时为15节阵风
能见度10公里或以上
散云层高于5000英尺
多云层高于8000英尺
成为
从 10日的 15点(UTC)到 10日的 16点(UTC)
风速9节,风向北转东北
能见度10公里或以上
散云层高于2000英尺
多云层高于12000英尺
成为
从 11日的 08点(UTC)到 11日的 09点(UTC)
风速6节,风向
能见度10公里或以上
天空无云

TAF: KFAF 101100Z 1011/1117 01011G17KT 8000 -RA SCT030 BKN050 QNH2998INS BECMG 1013/1014 02010G15KT 9999 NSW SCT050 BKN080 QNH3006INS BECMG 1015/1016 03009KT 9999 SCT020 BKN120 QNH3007INS BECMG 1108/1109 35006KT 9999 SKC QNH3013INS TX04/1117Z TNM01/1111Z

超过4000个机场的气象观测和天气预报(METAR&TAF报告)。

可查询的气象台以黄色和红色小点在地图上表示。

将鼠标移到小点上方,可查看气象台名称。

然后点击查看天气观测和预报。

如需切换地图:点击带黑十字的绿色按钮放大地图;点击带横线的绿色按钮缩小地图;或者点击绿色箭头查看邻近地区的地图。


METAR-TAF: